KECG

Elizabeth City CG Air Station/Rgnl Airport

Elizabeth City, North Carolina, USA
METAR KECG 181554Z 30010KT 10SM CLR 14/07 A3015 RMK AO2 SLP209 T01440072
Observed Flight Rules
Dec-18 @ 15:54 UTC (47 minutes ago) Visual Flight Rules
Wind Visibility Clouds
300° at 10 knots 10 miles
  • Clear skies
Temperatures Readings
Current 14°C / 57°F
Dewpoint 7°C / 45°F
Humidity 63%
Altimeter 30.15" Hg
Pressure 1020.9 hPa
Elevation 11
METAR KECG 181554Z 30010KT 10SM CLR 14/07 A3015 RMK AO2 SLP209 T01440072
Observed Flight Rules
Dec-18 @ 15:54 UTC
(47 minutes ago)
VFR
Wind Visibility
300° at 10 knots 10 miles
Clouds
  • Clear skies
Temperature Dewpoint
14°C / 57°F 7°C / 45°F
Humidity Altimeter Pressure
63% 30.15" Hg 1020.9 hPa